createdAt,value
2023-02-02T02:54:43.496Z,185.57
2023-02-02T02:55:43.468Z,183.24
2023-02-02T02:56:43.431Z,181.44
2023-02-02T02:57:43.381Z,183.04
2023-02-02T02:58:43.355Z,183.66
2023-02-02T02:59:43.321Z,177.48
2023-02-02T03:00:43.256Z,177.24
2023-02-02T03:01:43.220Z,176.46
2023-02-02T03:02:43.205Z,176.75
2023-02-02T03:03:43.136Z,177.11
2023-02-02T03:04:43.123Z,179.77
2023-02-02T03:05:43.942Z,177.73
2023-02-02T03:06:43.066Z,175.66
2023-02-02T03:07:42.994Z,174.89
2023-02-02T03:08:42.935Z,173.29
2023-02-02T03:09:42.908Z,172.07
2023-02-02T03:10:42.852Z,173.35
2023-02-02T03:11:42.824Z,175.15
2023-02-02T03:12:42.786Z,174.69
2023-02-02T03:13:42.726Z,177.08
2023-02-02T03:14:42.696Z,175.78
2023-02-02T03:15:42.668Z,173.71
2023-02-02T03:16:42.606Z,174.53
2023-02-02T03:17:42.572Z,177.45
2023-02-02T03:18:42.518Z,175.44
2023-02-02T03:19:42.495Z,177.70
2023-02-02T03:20:42.441Z,173.83
2023-02-02T03:21:42.407Z,173.02
2023-02-02T03:22:42.377Z,175.83
2023-02-02T03:23:42.350Z,174.80
2023-02-02T03:24:42.311Z,175.76
2023-02-02T03:25:42.271Z,174.46
2023-02-02T03:26:42.404Z,174.44
2023-02-02T03:27:42.215Z,176.27
2023-02-02T03:28:42.146Z,173.95
2023-02-02T03:29:42.113Z,179.37
2023-02-02T03:30:42.108Z,172.92
2023-02-02T03:31:42.112Z,172.09
2023-02-02T03:32:41.998Z,176.69
2023-02-02T03:33:41.968Z,175.94
2023-02-02T03:34:41.968Z,175.72
2023-02-02T03:35:41.922Z,173.67
2023-02-02T03:36:41.929Z,173.55
2023-02-02T03:37:41.818Z,172.53
2023-02-02T03:39:41.767Z,175.34
2023-02-02T03:40:41.709Z,173.13
2023-02-02T03:41:41.691Z,174.25
2023-02-02T03:42:41.644Z,172.26
2023-02-02T03:43:41.652Z,171.47
2023-02-02T03:44:41.564Z,170.86
2023-02-02T03:45:41.587Z,171.06
2023-02-02T03:46:41.569Z,170.88
2023-02-02T03:47:41.473Z,170.98
2023-02-02T03:48:41.415Z,171.39
2023-02-02T03:49:41.392Z,173.90
2023-02-02T03:50:41.352Z,167.63
2023-02-02T03:51:41.316Z,169.60
2023-02-02T03:52:41.263Z,171.99
2023-02-02T03:53:41.278Z,170.49
2023-02-02T03:54:41.248Z,169.20
2023-02-02T03:55:41.168Z,171.76
2023-02-02T03:56:41.174Z,165.32
2023-02-02T03:57:41.105Z,172.28
2023-02-02T03:58:41.074Z,171.28
2023-02-02T03:59:41.035Z,169.72
2023-02-02T04:00:41.005Z,170.28
2023-02-02T04:01:41.064Z,170.07
2023-02-02T04:02:41.005Z,172.36
2023-02-02T04:03:40.892Z,171.93
2023-02-02T04:04:40.875Z,171.10
2023-02-02T04:05:40.871Z,168.18
2023-02-02T04:06:40.784Z,169.03
2023-02-02T04:07:40.748Z,168.04
2023-02-02T04:08:40.727Z,167.03
2023-02-02T04:09:40.744Z,168.99
2023-02-02T04:11:40.640Z,168.47
2023-02-02T04:12:40.584Z,169.83
2023-02-02T04:13:40.558Z,168.07
2023-02-02T04:14:40.524Z,165.97
2023-02-02T04:15:40.475Z,165.18
2023-02-02T04:16:40.434Z,167.06
2023-02-02T04:17:40.478Z,163.92
2023-02-02T04:18:40.372Z,166.41
2023-02-02T04:19:40.368Z,163.75
2023-02-02T04:20:40.360Z,162.09
2023-02-02T04:21:40.293Z,158.27
2023-02-02T04:22:40.272Z,163.98
2023-02-02T04:23:40.234Z,166.65
2023-02-02T04:24:40.209Z,160.33
2023-02-02T04:25:40.151Z,166.51
2023-02-02T04:26:40.268Z,168.17
2023-02-02T04:27:40.099Z,166.37
2023-02-02T06:56:35.535Z,172.29
2023-02-02T06:57:34.701Z,175.04
2023-02-02T06:58:34.733Z,171.90
2023-02-02T06:59:34.668Z,174.50
2023-02-02T07:00:34.627Z,170.53
2023-02-02T07:01:34.602Z,171.23
2023-02-02T07:02:34.583Z,169.97
2023-02-02T07:03:34.573Z,169.09
2023-02-02T07:04:34.499Z,170.94
2023-02-02T07:05:34.453Z,171.97
2023-02-02T07:06:34.403Z,171.51
2023-02-02T07:07:35.055Z,171.15
2023-02-02T07:08:34.329Z,172.68
2023-02-02T07:09:34.314Z,171.84
2023-02-02T07:11:14.638Z,174.57
2023-02-02T07:11:35.890Z,174.77
2023-02-02T07:12:34.268Z,174.87
2023-02-02T07:13:34.107Z,175.10
2023-02-02T07:14:34.149Z,175.72
2023-02-02T07:15:34.045Z,175.97
2023-02-02T07:16:34.019Z,177.60
2023-02-02T07:17:34.543Z,178.75
2023-02-02T07:18:34.034Z,180.03
2023-02-02T07:19:33.900Z,178.98
2023-02-02T07:20:34.591Z,178.68
2023-02-02T07:21:33.836Z,178.57
2023-02-02T07:22:33.824Z,176.44
2023-02-02T07:23:33.790Z,177.87
2023-02-02T07:24:33.749Z,181.50
2023-02-02T07:25:33.717Z,180.86
2023-02-02T07:26:33.941Z,180.64
2023-02-02T07:27:34.539Z,183.42
2023-02-02T07:28:33.585Z,185.34
2023-02-02T07:29:33.539Z,185.12
2023-02-02T07:30:33.569Z,187.23
2023-02-02T07:31:36.096Z,187.19
2023-02-02T07:32:33.482Z,191.85
2023-02-02T07:33:34.112Z,192.54
2023-02-02T07:34:33.426Z,194.74
2023-02-02T07:35:33.599Z,191.63
2023-02-02T07:36:33.345Z,196.19
2023-02-02T07:37:34.057Z,193.81
2023-02-02T07:38:33.244Z,195.30
2023-02-02T07:39:33.196Z,196.22
2023-02-02T07:40:33.156Z,197.30
2023-02-02T07:41:33.120Z,197.20
2023-02-02T07:42:33.132Z,199.62
2023-02-02T07:43:34.063Z,199.51
2023-02-02T07:44:33.622Z,199.75
2023-02-02T07:45:33.044Z,201.08
2023-02-02T07:46:33.576Z,203.79
2023-02-02T07:47:32.891Z,203.83
2023-02-02T07:48:33.098Z,202.50
2023-02-02T07:49:33.002Z,205.26
2023-02-02T07:50:34.667Z,205.15
2023-02-02T08:08:35.042Z,210.99
2023-02-02T09:39:34.088Z,222.65
2023-02-02T10:42:27.011Z,188.66
2023-02-02T10:43:31.332Z,192.08
2023-02-02T10:44:26.956Z,192.35
2023-02-02T10:45:26.897Z,192.68
2023-02-02T10:46:26.911Z,194.93
2023-02-02T10:47:26.829Z,199.40
2023-02-02T10:48:26.803Z,201.54
2023-02-02T10:49:26.818Z,203.53
2023-02-02T10:50:27.125Z,207.70
2023-02-02T10:51:26.770Z,207.43
2023-02-02T10:52:26.862Z,205.98
2023-02-02T10:53:26.674Z,207.03
2023-02-02T10:54:26.740Z,206.85
2023-02-02T10:55:29.177Z,207.61
2023-02-02T10:56:26.820Z,206.95
2023-02-02T10:57:27.622Z,209.47
2023-02-02T10:58:26.804Z,207.62
2023-02-02T10:59:27.834Z,208.47
2023-02-02T11:00:26.911Z,206.91
2023-02-02T11:01:26.585Z,209.91
2023-02-02T11:02:26.524Z,209.14
2023-02-02T11:03:26.522Z,207.76
2023-02-02T11:04:26.471Z,211.70
2023-02-02T11:05:26.412Z,208.68
2023-02-02T11:06:26.381Z,206.28
2023-02-02T11:07:26.349Z,208.58
2023-02-02T11:08:26.320Z,208.67
2023-02-02T11:09:26.298Z,208.82
2023-02-02T11:10:26.589Z,208.37
2023-02-02T11:11:26.291Z,206.84
2023-02-02T11:12:26.253Z,209.01
2023-02-02T11:13:26.183Z,209.15
2023-02-02T11:14:26.698Z,209.79
2023-02-02T11:15:26.133Z,207.75
2023-02-02T11:16:32.557Z,210.53
2023-02-02T11:17:26.991Z,210.62
2023-02-02T11:18:26.063Z,209.90
2023-02-02T11:19:26.021Z,210.84
2023-02-02T11:20:26.872Z,207.51
2023-02-02T11:21:25.885Z,208.43
2023-02-02T11:22:25.837Z,207.74
2023-02-02T11:23:25.769Z,206.52
2023-02-02T11:24:26.737Z,206.07
2023-02-02T11:25:25.706Z,208.98
2023-02-02T11:26:25.720Z,208.10
2023-02-02T11:27:25.656Z,206.47
2023-02-02T11:28:25.629Z,207.30
2023-02-02T11:29:25.570Z,206.18
2023-02-02T11:30:25.935Z,209.77
2023-02-02T11:31:26.188Z,210.11
2023-02-02T11:32:25.470Z,211.17
2023-02-02T11:33:25.444Z,210.33
2023-02-02T11:34:25.407Z,210.23
2023-02-02T11:35:25.344Z,209.76
2023-02-02T11:36:25.310Z,207.61
2023-02-02T11:37:25.275Z,209.83
2023-02-02T11:38:25.680Z,209.45
2023-02-02T11:39:25.213Z,210.04
2023-02-02T11:40:25.533Z,210.82
2023-02-02T11:41:25.120Z,209.15
2023-02-02T11:42:25.189Z,209.39
2023-02-02T11:43:25.656Z,209.59
2023-02-02T11:44:25.009Z,209.91
2023-02-02T11:45:24.985Z,211.33
2023-02-02T11:46:25.050Z,214.08
2023-02-02T11:47:24.914Z,216.10
2023-02-02T11:48:24.876Z,213.01
2023-02-02T11:49:24.820Z,214.63
2023-02-02T11:50:25.094Z,213.67
2023-02-02T11:51:24.798Z,209.92
2023-02-02T11:52:24.723Z,211.34
2023-02-02T11:53:24.663Z,208.62
2023-02-02T11:54:24.671Z,211.00
2023-02-02T11:55:24.614Z,211.20
2023-02-02T11:56:24.562Z,211.63
2023-02-02T11:57:24.578Z,211.95
2023-02-02T11:58:24.601Z,213.00
2023-02-02T11:59:24.421Z,214.50
2023-02-02T12:00:24.742Z,211.37
2023-02-02T12:01:24.340Z,211.63
2023-02-02T12:02:24.366Z,211.97
2023-02-02T12:03:24.370Z,212.54
2023-02-02T12:04:24.262Z,213.06
2023-02-02T12:05:24.192Z,213.74
2023-02-02T12:06:24.154Z,212.95
2023-02-02T12:07:24.107Z,214.83
2023-02-02T12:08:24.169Z,210.01
2023-02-02T12:09:24.031Z,213.44
2023-02-02T12:10:24.312Z,214.17
2023-02-02T12:11:23.943Z,211.45
2023-02-02T12:12:23.884Z,213.81
2023-02-02T12:13:23.850Z,213.07
2023-02-02T12:14:23.863Z,212.30
2023-02-02T12:15:23.778Z,211.71
2023-02-02T12:16:24.718Z,211.11
2023-02-02T12:17:23.729Z,213.72
2023-02-02T12:18:24.714Z,209.36
2023-02-02T12:19:23.748Z,209.86
2023-02-02T12:20:23.832Z,207.17
2023-02-02T12:21:23.542Z,205.73
2023-02-02T12:22:28.159Z,207.38
2023-02-02T12:23:23.466Z,207.15
2023-02-02T12:24:23.416Z,202.20
2023-02-02T12:25:23.794Z,197.30
2023-02-02T12:26:23.376Z,194.59
2023-02-02T12:27:23.298Z,192.66
2023-02-02T12:28:23.800Z,177.64
2023-02-02T12:29:23.235Z,176.46
2023-02-02T12:30:23.609Z,179.22
2023-02-02T12:31:23.126Z,178.73
2023-02-02T12:32:23.049Z,178.90
2023-02-02T12:33:23.033Z,180.09
2023-02-02T12:34:23.009Z,182.40
2023-02-02T12:35:22.910Z,186.82
2023-02-02T12:36:22.911Z,187.56
2023-02-02T12:37:22.874Z,188.67
2023-02-02T13:40:23.220Z,203.52
2023-02-02T13:58:19.615Z,206.28
2023-02-02T14:07:19.194Z,203.31
2023-02-02T14:19:26.704Z,204.16
2023-02-02T15:50:15.223Z,195.74
2023-02-02T16:09:14.584Z,192.31
2023-02-02T16:18:14.252Z,196.58
2023-02-02T16:37:13.518Z,198.11
2023-02-02T16:40:13.406Z,193.62
2023-02-02T16:41:13.367Z,197.19
2023-02-02T16:42:13.319Z,195.32
2023-02-02T16:43:13.254Z,195.11
2023-02-02T16:44:13.221Z,194.18
2023-02-02T16:45:13.219Z,196.44
2023-02-02T16:46:13.253Z,194.92
2023-02-02T16:47:13.152Z,196.96
2023-02-02T16:48:13.085Z,197.18
2023-02-02T16:49:13.065Z,197.18
2023-02-02T16:50:13.020Z,197.16
2023-02-02T16:51:12.966Z,197.28
2023-02-02T16:52:12.927Z,197.30
2023-02-02T16:53:12.947Z,197.65
2023-02-02T16:54:12.899Z,196.13
2023-02-02T16:55:12.821Z,195.93
2023-02-02T16:56:12.792Z,197.63
2023-02-02T16:57:12.762Z,194.58
2023-02-02T16:58:12.737Z,194.89
2023-02-02T16:59:12.726Z,193.26
2023-02-02T17:00:12.656Z,193.58
2023-02-02T17:01:15.895Z,193.93
2023-02-02T17:02:12.590Z,194.03
2023-02-02T17:03:12.525Z,194.13
2023-02-02T17:04:12.501Z,193.94
2023-02-02T17:05:12.465Z,192.90
2023-02-02T17:06:12.480Z,191.55
2023-02-02T17:07:12.415Z,191.34
2023-02-02T17:08:12.366Z,193.98
2023-02-02T17:09:12.305Z,191.76
2023-02-02T17:10:12.300Z,191.84
2023-02-02T17:11:12.231Z,193.38
2023-02-02T17:12:22.557Z,191.04
2023-02-02T17:14:12.137Z,191.63
2023-02-02T17:15:12.086Z,192.18
2023-02-02T17:16:12.105Z,192.25
2023-02-02T17:17:12.003Z,193.50
2023-02-02T17:18:11.973Z,191.57
2023-02-02T17:19:11.937Z,193.51
2023-02-02T17:20:11.876Z,194.14
2023-02-02T17:21:11.859Z,194.04
2023-02-02T17:22:11.814Z,193.27
2023-02-02T17:23:11.780Z,191.12
2023-02-02T17:24:11.741Z,190.42
2023-02-02T17:25:11.713Z,189.96
2023-02-02T17:26:11.652Z,193.34
2023-02-02T17:27:11.614Z,191.92
2023-02-02T17:28:11.619Z,191.28
2023-02-02T17:29:11.549Z,192.02
2023-02-02T17:30:11.506Z,192.57
2023-02-02T17:31:11.661Z,192.54
2023-02-02T17:32:12.271Z,193.26
2023-02-02T17:33:11.567Z,192.39
2023-02-02T17:34:11.495Z,193.07
2023-02-02T17:35:11.505Z,193.71
2023-02-02T17:36:11.460Z,194.95
2023-02-02T17:37:11.256Z,192.57
2023-02-02T17:38:11.223Z,193.33
2023-02-02T17:39:11.943Z,196.10
2023-02-02T17:40:13.785Z,195.65
2023-02-02T17:41:11.545Z,198.96
2023-02-02T17:42:11.318Z,196.94
2023-02-02T17:43:11.789Z,196.76
2023-02-02T17:44:11.231Z,198.16
2023-02-02T17:45:11.207Z,195.42
2023-02-02T17:46:11.210Z,199.04
2023-02-02T17:47:11.132Z,199.42
2023-02-02T17:48:11.070Z,198.60
2023-02-02T17:49:11.047Z,201.00
2023-02-02T17:50:11.000Z,200.85
2023-02-02T17:51:11.001Z,198.07
2023-02-02T17:52:10.940Z,201.34
2023-02-02T17:53:10.871Z,199.60
2023-02-02T17:54:10.838Z,200.29
2023-02-02T18:06:11.269Z,200.73
2023-02-02T20:23:05.481Z,186.33
2023-02-02T20:24:05.453Z,185.70
2023-02-02T20:25:05.474Z,184.11
2023-02-02T20:26:05.378Z,183.42
2023-02-02T20:27:05.351Z,183.70
2023-02-02T22:24:01.315Z,169.08
2023-02-02T22:25:01.293Z,170.56
2023-02-02T22:26:01.261Z,171.40
2023-02-02T22:27:01.213Z,171.93
2023-02-02T22:28:01.176Z,170.29
2023-02-02T22:29:01.130Z,174.49
2023-02-02T22:30:01.091Z,172.79
2023-02-02T22:31:01.229Z,173.40
2023-02-02T22:32:01.031Z,174.59
2023-02-02T22:33:01.000Z,175.09
2023-02-02T22:34:00.983Z,174.74
2023-02-02T22:35:00.968Z,175.44
2023-02-02T22:36:00.856Z,175.63
2023-02-02T22:46:00.939Z,181.73
2023-02-02T22:48:01.404Z,182.21
